M I D A S
Marine Information and Data Acquisition System
Tripno 2019 of the Zeeleeuw from 2010-12-15 08:02:08 to 2010-12-15 14:16:02
Back to CruiseResearch ActivitiesStationsMapUnderway DataData graphs

EquipmentUnitsComment
TimeDGPSUTC
LatitudeDGPSDM.mWGS84
LongitudeDGPSDM.mWGS84
TemperatureSBE03/SBE38deg celciusITS90
ConductivitySBE21S/mITS90
SalinitySBE21 Practical Salinity Units
ChlorophylAChelsea fluorimeterµg/lCalibrated in Aceton
Missing or incorrect values are displayed as -999
Sea surface data collected by the RV Zeeleeuw from 2010-12-15 07:52:59 to 2010-12-15 14:27:43
Time Latitude Longitude Temperature Conductivity Salinity ChlorophylA
2010-12-15 07:54:07 51°13.68 2°55.882 12.0022 0.06173 0.373781 -0.164791
2010-12-15 07:55:08 51°13.713 2°55.775 11.9296 0.06173 0.373746 -0.129967
2010-12-15 07:56:07 51°13.777 2°55.682 11.962 0.06173 0.373698 -0.164791
2010-12-15 07:57:08 51°13.859 2°55.63 11.8964 0.06173 0.373601 -0.095143
2010-12-15 07:58:08 51°13.926 2°55.612 11.8512 0.06173 0.373567 -0.164791
2010-12-15 07:59:07 51°13.943 2°55.617 11.8141 0.06173 0.373202 -0.164791
2010-12-15 08:00:06 51°13.932 2°55.621 11.8283 0.061834 0.373446 -0.164791
2010-12-15 08:01:08 51°13.928 2°55.624 11.4845 0.061834 0.37272 -0.095143
2010-12-15 08:02:07 51°13.981 2°55.545 11.7203 0.061834 0.37366 -0.129967
2010-12-15 08:03:06 51°14.096 2°55.452 11.7291 0.061834 0.37344 -0.164791
2010-12-15 08:04:08 51°14.231 2°55.329 11.5893 0.061938 0.373594 -0.164791
2010-12-15 08:05:07 51°14.371 2°55.2 11.6073 0.061938 0.373581 0.009329
2010-12-15 08:06:07 51°14.525 2°55.046 11.4721 0.062042 0.374175 -0.060319
2010-12-15 08:07:05 51°14.692 2°54.882 11.5146 0.061938 0.375001 -0.060319
2010-12-15 08:08:03 51°14.859 2°54.704 11.483 0.061834 0.373563 -0.095143
2010-12-15 08:09:04 51°15.033 2°54.508 11.5095 0.061938 0.374131 -0.060319
2010-12-15 08:10:03 51°15.207 2°54.325 11.5076 0.062042 0.374822 -0.060319
2010-12-15 08:11:04 51°15.38 2°54.124 11.4831 0.062042 0.374863 -0.129967
2010-12-15 08:12:04 51°15.545 2°53.918 11.5117 0.062458 0.377152 -0.095143
2010-12-15 08:13:04 51°15.705 2°53.719 11.5309 0.066828 0.405056 -0.060319
2010-12-15 08:14:03 51°15.864 2°53.52 11.5468 0.072654 0.441464 -0.060319
2010-12-15 08:15:04 51°16.037 2°53.326 11.5451 0.077337 0.471209 -0.095143
2010-12-15 08:16:04 51°16.231 2°53.208 11.5597 0.075984 0.462338 -0.060319
2010-12-15 08:17:04 51°16.429 2°53.097 11.5837 0.079938 0.487266 -0.095143
2010-12-15 08:18:04 51°16.627 2°52.984 11.5861 0.077961 0.474632 -0.025495
2010-12-15 08:19:04 51°16.822 2°52.87 11.6043 0.089928 0.550589 -0.095143
2010-12-15 08:20:04 51°17.016 2°52.751 11.6277 0.082748 0.504533 -0.025495
2010-12-15 08:21:04 51°17.211 2°52.628 11.6421 0.088367 0.540264 -0.095143
2010-12-15 08:22:04 51°17.406 2°52.506 11.6574 0.098774 0.605965 -0.129967
2010-12-15 08:23:04 51°17.601 2°52.384 11.6776 0.102729 0.631614 -0.095143
2010-12-15 08:24:04 51°17.797 2°52.258 11.6903 0.10096 0.619835 -0.095143
2010-12-15 08:25:04 51°17.996 2°52.132 11.7096 0.15343 0.960295 -0.060319
2010-12-15 08:26:04 51°18.189 2°52.007 11.7252 0.107309 0.660194 -0.095143
2010-12-15 08:27:04 51°18.377 2°51.886 11.7439 0.114387 0.705608 -0.095143
2010-12-15 08:28:04 51°18.563 2°51.757 11.762 0.113555 0.699827 -0.060319
2010-12-15 08:29:06 51°18.75 2°51.632 11.7799 0.17603 1.107773 -0.060319
2010-12-15 08:30:04 51°18.938 2°51.508 11.7992 0.143746 0.895038 -0.095143
2010-12-15 08:31:04 51°19.133 2°51.378 11.8133 0.153534 0.958862 -0.060319
2010-12-15 08:32:05 51°19.308 2°51.202 11.8288 0.15041 0.9382 -0.095143
2010-12-15 08:33:03 51°19.467 2°51.017 11.8446 0.201551 1.275724 -0.060319
2010-12-15 08:34:04 51°19.634 2°50.821 11.862 0.168427 1.056059 -0.095143
2010-12-15 08:35:03 51°19.796 2°50.634 11.8809 0.163428 1.022521 -0.095143
2010-12-15 08:36:04 51°19.959 2°50.442 11.8971 0.157804 0.985421 -0.095143
2010-12-15 08:37:05 51°20.128 2°50.248 11.9138 0.213324 1.352736 -0.060319
2010-12-15 08:38:04 51°20.293 2°50.066 11.93 0.162282 1.014544 -0.129967
2010-12-15 08:39:04 51°20.465 2°49.874 11.9461 0.211553 1.340354 -0.060319
2010-12-15 08:40:04 51°20.63 2°49.686 11.9626 0.196759 1.241584 -0.060319
2010-12-15 08:41:04 51°20.789 2°49.508 11.9785 0.217179 1.377043 -0.095143
2010-12-15 08:42:04 51°20.957 2°49.318 11.9953 0.180717 1.134637 -0.060319
2010-12-15 08:43:04 51°21.123 2°49.129 12.0106 0.194988 1.229023 -0.095143
2010-12-15 08:44:03 51°21.289 2°48.945 12.0267 0.168218 1.051899 -0.095143
2010-12-15 08:45:04 51°21.462 2°48.75 12.0438 0.195405 1.231076 -0.095143
2010-12-15 08:46:03 51°21.624 2°48.561 12.0587 0.211761 1.339468 -0.095143
2010-12-15 08:47:05 51°21.789 2°48.365 12.0761 0.243752 1.553181 -0.129967
2010-12-15 08:48:04 51°21.947 2°48.182 12.0917 0.233539 1.4842 -0.129967
2010-12-15 08:49:03 51°22.111 2°47.993 12.1085 0.214783 1.358828 -0.060319
2010-12-15 08:50:04 51°22.276 2°47.804 12.1234 0.273042 1.750229 -0.095143
2010-12-15 08:51:04 51°22.442 2°47.618 12.1387 0.193842 1.219151 -0.129967
2010-12-15 08:52:07 51°22.603 2°47.434 12.1519 0.249589 1.591015 -0.095143
2010-12-15 08:53:05 51°22.763 2°47.258 12.1709 0.210928 1.332126 -0.060319
2010-12-15 08:54:04 51°22.931 2°47.076 12.1876 0.1953 1.227983 -0.095143
2010-12-15 08:55:04 51°23.099 2°46.892 12.2026 0.218013 1.378728 -0.060319
2010-12-15 08:56:04 51°23.264 2°46.702 12.2187 0.197384 1.241659 -0.095143
2010-12-15 08:57:04 51°23.401 2°46.469 12.2342 0.223223 1.413323 -0.095143
2010-12-15 08:58:04 51°23.514 2°46.202 12.2512 0.233435 1.480797 -0.129967
2010-12-15 08:59:04 51°23.636 2°45.932 12.2683 0.256468 1.635532 -0.129967
2010-12-15 09:00:04 51°23.755 2°45.666 12.2877 0.232185 1.472594 -0.129967
2010-12-15 09:01:04 51°23.885 2°45.409 12.3055 0.278567 1.784468 -0.095143
2010-12-15 09:02:04 51°24.035 2°45.186 12.3205 0.231768 1.46904 -0.095143
2010-12-15 09:03:03 51°24.186 2°44.964 12.3408 0.220305 1.392613 -0.095143
2010-12-15 09:04:04 51°24.317 2°44.774 12.3582 0.267413 1.708316 -0.095143
2010-12-15 09:05:04 51°24.409 2°44.643 12.372 0.255842 1.630409 -0.095143
2010-12-15 09:06:04 51°24.44 2°44.574 12.3867 0.257927 1.644261 -0.025495
2010-12-15 09:07:04 51°24.468 2°44.456 12.4032 0.247817 1.576184 -0.025495
2010-12-15 09:08:03 51°24.512 2°44.288 12.4158 0.252507 1.607221 -0.095143
2010-12-15 09:09:04 51°24.555 2°44.09 12.4374 0.286177 1.83474 -0.095143
2010-12-15 09:10:04 51°24.598 2°43.913 12.4513 0.292954 1.880882 -0.095143
2010-12-15 09:11:04 51°24.625 2°43.851 12.4691 0.282529 1.809566 -0.095143
2010-12-15 09:12:04 51°24.629 2°43.812 12.4899 0.264807 1.690035 -0.060319
2010-12-15 09:13:04 51°24.655 2°43.772 12.5024 0.290765 1.864934 -0.060319
2010-12-15 09:14:04 51°24.674 2°43.737 12.5146 0.293788 1.885882 -0.060319
2010-12-15 09:15:04 51°24.674 2°43.729 12.5309 0.287012 1.83985 -0.025495
2010-12-15 09:16:04 51°24.667 2°43.738 12.5496 0.307031 1.974917 -0.025495
2010-12-15 09:17:04 51°24.661 2°43.761 12.5714 0.273354 1.74645 -0.095143
2010-12-15 09:18:04 51°24.655 2°43.785 12.591 0.289201 1.853563 -0.095143
2010-12-15 09:19:04 51°24.648 2°43.803 12.5993 0.279714 1.789338 -0.060319
2010-12-15 09:20:04 51°24.645 2°43.747 12.6029 0.276899 1.770139 -0.095143
2010-12-15 09:21:04 51°24.667 2°43.714 12.6264 0.271478 1.733522 -0.060319
2010-12-15 09:22:06 51°24.664 2°43.73 12.6537 0.251986 1.601783 0.009329
2010-12-15 09:23:04 51°24.653 2°43.757 12.6596 0.276273 1.765583 0.009329
2010-12-15 09:24:04 51°24.644 2°43.779 12.6853 0.280548 1.794247 -0.129967
2010-12-15 09:25:04 51°24.64 2°43.766 12.6946 0.278984 1.783507 -0.095143
2010-12-15 09:26:04 51°24.655 2°43.729 12.7053 0.314017 2.021302 -0.095143
2010-12-15 09:27:04 51°24.664 2°43.727 12.7252 0.31506 2.028866 -0.060319
2010-12-15 09:28:04 51°24.671 2°43.707 12.7323 0.261367 1.664185 -0.060319
2010-12-15 09:29:04 51°24.686 2°43.693 12.7575 0.263868 1.681458 0.009329
2010-12-15 09:30:04 51°24.68 2°43.706 12.7714 0.270957 1.728783 -0.060319
2010-12-15 09:31:04 51°24.669 2°43.735 12.7838 0.323924 2.088461 -0.060319
2010-12-15 09:32:04 51°24.662 2°43.771 12.8094 0.267725 1.706015 -0.060319
2010-12-15 09:33:04 51°24.659 2°43.799 12.8088 0.265536 1.691057 -0.060319
2010-12-15 09:34:04 51°24.645 2°43.785 12.8342 0.271895 1.734274 -0.025495
2010-12-15 09:35:04 51°24.653 2°43.723 12.8598 0.276378 1.764549 -0.025495
2010-12-15 09:36:04 51°24.669 2°43.699 12.8571 0.278046 1.775515 -0.095143
2010-12-15 09:37:04 51°24.666 2°43.706 12.8844 0.263347 1.676516 -0.060319
2010-12-15 09:38:04 51°24.66 2°43.714 12.8851 0.28722 1.836753 -0.095143
2010-12-15 09:39:04 51°24.651 2°43.717 12.9059 0.267204 1.701653 -0.095143
2010-12-15 09:40:04 51°24.639 2°43.713 12.9188 0.271582 1.731073 -0.060319
2010-12-15 09:41:03 51°24.629 2°43.705 12.9397 0.287845 1.841259 -0.025495
2010-12-15 09:42:04 51°24.622 2°43.719 12.9429 0.307343 1.973853 -0.060319
2010-12-15 09:43:04 51°24.619 2°43.681 12.9586 0.280652 1.791757 -0.095143
2010-12-15 09:44:04 51°24.651 2°43.648 12.9806 0.254175 1.613664 -0.095143
2010-12-15 09:45:04 51°24.67 2°43.67 12.9971 0.275544 1.758039 -0.025495
2010-12-15 09:46:04 51°24.672 2°43.7 12.9986 0.264911 1.685942 -0.060319
2010-12-15 09:47:04 51°24.668 2°43.722 13.012 0.290348 1.856957 -0.025495
2010-12-15 09:48:04 51°24.662 2°43.739 13.0241 0.268142 1.70705 -0.095143
2010-12-15 09:49:04 51°24.656 2°43.757 13.0478 0.270123 1.720253 -0.095143
2010-12-15 09:50:04 51°24.65 2°43.773 13.052 0.271791 1.730937 -0.025495
2010-12-15 09:51:04 51°24.642 2°43.787 13.0673 0.285969 1.826799 -0.095143
2010-12-15 09:52:04 51°24.639 2°43.817 13.0813 0.282424 1.802055 -0.060319
2010-12-15 09:53:03 51°24.662 2°43.862 13.0893 0.281903 1.798704 -0.060319
2010-12-15 09:54:04 51°24.694 2°43.873 13.1049 0.270331 1.720795 -0.025495
2010-12-15 09:55:04 51°24.7 2°43.816 13.1095 0.259282 1.64659 -0.025495
2010-12-15 09:56:04 51°24.688 2°43.729 13.1229 0.279505 1.782693 -0.060319
2010-12-15 09:57:04 51°24.677 2°43.682 13.143 0.29139 1.862701 -0.095143
2010-12-15 09:58:03 51°24.668 2°43.671 13.1449 0.285969 1.826393 -0.095143
2010-12-15 09:59:04 51°24.662 2°43.681 13.1649 0.284613 1.816229 -0.060319
2010-12-15 10:00:04 51°24.659 2°43.707 13.1801 0.283884 1.810767 -0.060319
2010-12-15 10:01:03 51°24.657 2°43.729 13.1918 0.276482 1.761592 -0.095143
2010-12-15 10:02:04 51°24.65 2°43.742 13.1975 0.285343 1.821358 -0.129967
2010-12-15 10:03:04 51°24.643 2°43.753 13.2246 0.268455 1.70792 -0.060319
2010-12-15 10:04:04 51°24.636 2°43.765 13.2347 0.30995 1.988265 -0.060319
2010-12-15 10:05:04 51°24.626 2°43.763 13.2312 0.283467 1.807217 -0.095143
2010-12-15 10:06:03 51°24.633 2°43.71 13.2503 0.272625 1.73517 -0.025495
2010-12-15 10:07:03 51°24.673 2°43.709 13.2791 0.254175 1.611336 -0.060319
2010-12-15 10:08:04 51°24.743 2°43.829 13.2897 0.237187 1.497452 -0.060319
2010-12-15 10:09:03 51°24.862 2°44.006 13.2968 0.248129 1.569706 -0.060319
2010-12-15 10:10:03 51°25 2°44.221 13.2997 0.245941 1.555782 -0.060319
2010-12-15 10:11:03 51°25.148 2°44.451 13.3191 0.214574 1.347182 -0.129967
2010-12-15 10:12:03 51°25.302 2°44.682 13.327 0.2548 1.615284 -0.025495
2010-12-15 10:13:03 51°25.459 2°44.924 13.3351 0.261367 1.659535 -0.095143
2010-12-15 10:14:03 51°25.617 2°45.16 13.3457 0.265223 1.684735 -0.095143
2010-12-15 10:15:05 51°25.765 2°45.386 13.3581 0.238124 1.503422 0.009329
2010-12-15 10:16:03 51°25.904 2°45.6 13.3649 0.25949 1.64616 -0.025495
2010-12-15 10:17:05 51°26.045 2°45.831 13.3761 0.237812 1.501423 -0.060319
2010-12-15 10:18:03 51°26.183 2°46.05 13.3906 0.253758 1.608991 -0.060319
2010-12-15 10:19:04 51°26.33 2°46.284 13.402 0.232289 1.464226 -0.060319
2010-12-15 10:20:04 51°26.472 2°46.514 13.4102 0.226557 1.426862 -0.060319
2010-12-15 10:21:03 51°26.609 2°46.737 13.4257 0.243023 1.536673 -0.095143
2010-12-15 10:22:03 51°26.752 2°46.958 13.4301 0.241147 1.523593 -0.060319
2010-12-15 10:23:03 51°26.896 2°47.184 13.4398 0.241772 1.527707 -0.060319
2010-12-15 10:24:04 51°27.037 2°47.408 13.4535 0.234477 1.479246 -0.095143
2010-12-15 10:25:03 51°27.18 2°47.621 13.4609 0.229788 1.447737 -0.060319
2010-12-15 10:26:04 51°27.322 2°47.852 13.4786 0.27398 1.743645 -0.095143
2010-12-15 10:27:03 51°27.46 2°48.068 13.4865 0.243127 1.536857 -0.060319
2010-12-15 10:28:05 51°27.602 2°48.288 13.4968 0.239375 1.511616 -0.095143
2010-12-15 10:29:04 51°27.74 2°48.507 13.509 0.266683 1.69469 -0.060319
2010-12-15 10:30:06 51°27.88 2°48.727 13.5182 0.246983 1.56231 -0.095143
2010-12-15 10:31:05 51°28.018 2°48.935 13.5299 0.223014 1.402881 -0.060319
2010-12-15 10:32:04 51°28.171 2°49.11 13.5375 0.243752 1.541058 -0.060319
2010-12-15 10:33:03 51°28.323 2°49.285 13.5486 0.252299 1.597951 -0.060319
2010-12-15 10:34:06 51°28.482 2°49.473 13.5594 0.266787 1.695359 -0.060319
2010-12-15 10:35:07 51°28.627 2°49.647 13.5705 0.227078 1.430164 -0.025495
2010-12-15 10:36:06 51°28.775 2°49.818 13.5828 0.237395 1.49812 -0.025495
2010-12-15 10:37:04 51°28.926 2°49.99 13.595 0.24198 1.52873 -0.025495
2010-12-15 10:38:03 51°29.084 2°50.167 13.61 0.246775 1.56037 -0.060319
2010-12-15 10:39:03 51°29.246 2°50.348 13.6219 0.236457 1.492482 -0.060319
2010-12-15 10:40:04 51°29.402 2°50.53 13.6321 0.2177 1.36734 -0.025495
2010-12-15 10:41:03 51°29.549 2°50.694 13.64 0.241564 1.525697 -0.095143
2010-12-15 10:42:04 51°29.708 2°50.878 13.6521 0.236249 1.490902 -0.095143
2010-12-15 10:43:04 51°29.864 2°51.048 13.6604 0.270852 1.721752 -0.095143
2010-12-15 10:44:03 51°30.021 2°51.219 13.6722 0.238646 1.506365 -0.060319
2010-12-15 10:45:05 51°30.174 2°51.4 13.6818 0.253028 1.602357 -0.095143
2010-12-15 10:46:03 51°30.327 2°51.57 13.6946 0.219367 1.37848 -0.060319
2010-12-15 10:47:03 51°30.486 2°51.746 13.7059 0.260429 1.652265 -0.025495
2010-12-15 10:48:04 51°30.645 2°51.924 13.7175 0.243856 1.540729 -0.060319
2010-12-15 10:49:03 51°30.801 2°52.095 13.7276 0.239167 1.50992 -0.095143
2010-12-15 10:50:04 51°30.966 2°52.275 13.7401 0.23802 1.50184 -0.025495
2010-12-15 10:51:04 51°31.128 2°52.452 13.7486 0.261992 1.662317 -0.095143
2010-12-15 10:52:03 51°31.206 2°52.527 13.7586 0.271999 1.729586 -0.060319
2010-12-15 10:53:03 51°31.236 2°52.533 13.7733 0.273459 1.739012 -0.095143
2010-12-15 10:54:03 51°31.228 2°52.546 13.7854 0.265119 1.683226 -0.060319
2010-12-15 10:55:03 51°31.21 2°52.551 13.794 0.255008 1.615724 -0.060319
2010-12-15 10:56:03 51°31.206 2°52.554 13.8032 0.268976 1.708926 -0.095143
2010-12-15 10:57:03 51°31.208 2°52.564 13.825 0.281277 1.792525 -0.060319
2010-12-15 10:58:03 51°31.209 2°52.57 13.8348 0.27815 1.770112 -0.095143
2010-12-15 10:59:03 51°31.21 2°52.575 13.8417 0.295144 1.885028 -0.060319
2010-12-15 11:00:03 51°31.212 2°52.579 13.8491 0.291286 1.859825 -0.060319
2010-12-15 11:01:03 51°31.211 2°52.578 13.8616 0.300149 1.918912 -0.025495
2010-12-15 11:02:03 51°31.209 2°52.576 13.8684 0.315164 2.020674 -0.060319
2010-12-15 11:03:03 51°31.206 2°52.567 13.892 0.307656 1.969874 -0.095143
2010-12-15 11:04:03 51°31.204 2°52.558 13.9017 0.277003 1.76295 -0.095143
2010-12-15 11:05:03 51°31.204 2°52.556 13.8996 0.290973 1.856476 -0.060319
2010-12-15 11:06:03 51°31.204 2°52.556 13.9221 0.281903 1.795545 -0.060319
2010-12-15 11:07:03 51°31.205 2°52.559 13.9298 0.270748 1.72013 -0.025495
2010-12-15 11:08:03 51°31.207 2°52.567 13.939 0.284509 1.813075 -0.095143
2010-12-15 11:09:03 51°31.208 2°52.572 13.9444 0.270852 1.720449 -0.095143
2010-12-15 11:10:03 51°31.208 2°52.574 13.9494 0.283258 1.804977 -0.060319
2010-12-15 11:11:03 51°31.209 2°52.576 13.9516 0.266474 1.691632 -0.025495
2010-12-15 11:12:03 51°31.209 2°52.575 13.9672 0.273563 1.739488 -0.095143
2010-12-15 11:13:03 51°31.207 2°52.574 13.9779 0.290348 1.852664 -0.060319
2010-12-15 11:14:03 51°31.207 2°52.569 13.9925 0.277628 1.766408 -0.025495
2010-12-15 11:15:03 51°31.205 2°52.568 14.0013 0.274293 1.743782 -0.025495
2010-12-15 11:16:03 51°31.206 2°52.564 14.0106 0.272833 1.734039 -0.095143
2010-12-15 11:17:03 51°31.205 2°52.565 14.0116 0.278775 1.77442 -0.095143
2010-12-15 11:18:03 51°31.204 2°52.565 14.022 0.268142 1.70317 -0.060319
2010-12-15 11:19:03 51°31.204 2°52.565 14.0305 0.301087 1.924231 0.009329
2010-12-15 11:20:03 51°31.207 2°52.571 14.0384 0.303589 1.942423 -0.060319
2010-12-15 11:21:03 51°31.207 2°52.573 14.0449 0.29994 1.918281 -0.060319
2010-12-15 11:22:03 51°31.205 2°52.571 14.0509 0.290139 1.850777 -0.129967
2010-12-15 11:23:03 51°31.204 2°52.57 14.0614 0.288888 1.842539 -0.060319
2010-12-15 11:24:04 51°31.203 2°52.569 14.0751 0.270748 1.720766 -0.025495
2010-12-15 11:25:03 51°31.203 2°52.566 14.0852 0.285865 1.822852 0.009329
2010-12-15 11:26:03 51°31.203 2°52.565 14.0948 0.270852 1.721148 0.148626
2010-12-15 11:27:03 51°31.204 2°52.565 14.1028 0.263868 1.67397 -0.060319
2010-12-15 11:28:03 51°31.205 2°52.569 14.107 0.300983 1.924664 -0.060319
2010-12-15 11:29:03 51°31.206 2°52.572 14.122 0.28086 1.788755 -0.060319
2010-12-15 11:30:03 51°31.206 2°52.572 14.1269 0.288471 1.839623 -0.025495
2010-12-15 11:31:03 51°31.204 2°52.569 14.1363 0.306092 1.958873 -0.025495
2010-12-15 11:32:03 51°31.204 2°52.566 14.1442 0.300357 1.920465 -0.060319
2010-12-15 11:33:03 51°31.203 2°52.564 14.1597 0.307343 1.967316 -0.025495
2010-12-15 11:34:03 51°31.204 2°52.563 14.1716 0.291703 1.861334 -0.095143
2010-12-15 11:35:03 51°31.204 2°52.565 14.1757 0.280443 1.785583 -0.060319
2010-12-15 11:36:03 51°31.205 2°52.567 14.1843 0.290452 1.85234 -0.060319
2010-12-15 11:37:03 51°31.205 2°52.568 14.1908 0.279401 1.77771 0.044153
2010-12-15 11:38:03 51°31.203 2°52.565 14.2007 0.283154 1.803607 -0.060319
2010-12-15 11:39:03 51°31.202 2°52.56 14.2063 0.302755 1.936129 -0.025495
2010-12-15 11:40:03 51°31.202 2°52.558 14.2187 0.30995 1.985505 -0.025495
2010-12-15 11:41:03 51°31.203 2°52.56 14.2245 0.286803 1.828675 -0.095143
2010-12-15 11:42:04 51°31.205 2°52.564 14.2407 0.283467 1.805614 -0.095143
2010-12-15 11:43:03 51°31.207 2°52.57 14.2396 0.281486 1.791643 -0.095143
2010-12-15 11:44:03 51°31.205 2°52.569 14.2516 0.283675 1.806185 -0.060319
2010-12-15 11:45:03 51°31.203 2°52.567 14.2583 0.286803 1.827661 0.078977
2010-12-15 11:46:03 51°31.204 2°52.563 14.2635 0.287533 1.83292 -0.129967
2010-12-15 11:47:03 51°31.203 2°52.562 14.2719 0.295561 1.886626 0.009329
2010-12-15 11:48:03 51°31.202 2°52.561 14.2804 0.266057 1.688679 -0.095143
2010-12-15 11:49:03 51°31.203 2°52.564 14.2941 0.299314 1.912277 -0.060319
2010-12-15 11:50:03 51°31.204 2°52.565 14.2974 0.28086 1.787598 0.009329
2010-12-15 11:51:03 51°31.204 2°52.566 14.3053 0.298584 1.907236 -0.025495
2010-12-15 11:52:03 51°31.205 2°52.567 14.3127 0.275439 1.751717 0.009329
2010-12-15 11:53:03 51°31.203 2°52.565 14.3232 0.278462 1.771529 -0.060319
2010-12-15 11:54:03 51°31.202 2°52.562 14.3306 0.280235 1.783882 0.044153
2010-12-15 11:55:03 51°31.202 2°52.553 14.3415 0.300253 1.919085 -0.095143
2010-12-15 11:56:03 51°31.201 2°52.55 14.3507 0.29431 1.877689 0.009329
2010-12-15 11:57:03 51°31.202 2°52.554 14.3546 0.28649 1.825418 -0.095143
2010-12-15 11:58:03 51°31.205 2°52.558 14.3612 0.282216 1.795794 -0.025495
2010-12-15 11:59:03 51°31.204 2°52.563 14.3719 0.27054 1.717588 -0.060319
2010-12-15 12:00:03 51°31.206 2°52.566 14.3805 0.283675 1.805785 -0.060319
2010-12-15 12:01:03 51°31.203 2°52.566 14.3848 0.336752 2.165804 -0.025495
2010-12-15 12:02:03 51°31.203 2°52.556 14.3908 0.295874 1.888216 0.009329
2010-12-15 12:03:03 51°31.201 2°52.55 14.4007 0.282945 1.800871 -0.025495
2010-12-15 12:04:03 51°31.203 2°52.549 14.4091 0.284613 1.812069 -0.025495
2010-12-15 12:05:03 51°31.203 2°52.552 14.4145 0.281486 1.790684 -0.025495
2010-12-15 12:06:03 51°31.202 2°52.555 14.4221 0.296082 1.890043 0.009329
2010-12-15 12:07:03 51°31.203 2°52.558 14.4312 0.294101 1.875623 -0.060319
2010-12-15 12:08:03 51°31.206 2°52.554 14.4345 0.295248 1.883539 -0.025495
2010-12-15 12:09:03 51°31.214 2°52.545 14.4424 0.284196 1.809194 -0.095143
2010-12-15 12:10:03 51°31.219 2°52.543 14.4476 0.27398 1.741165 -0.025495
2010-12-15 12:11:03 51°31.223 2°52.542 14.464 0.074111 0.430963 -0.060319
2010-12-15 12:12:03 51°31.229 2°52.535 14.4726 0.10429 0.622601 -0.060319
2010-12-15 12:13:03 51°31.223 2°52.537 14.4827 0.110744 0.663769 -0.025495
2010-12-15 12:14:03 51°31.205 2°52.541 14.4378 0.238854 1.498738 -0.025495
2010-12-15 12:15:03 51°31.198 2°52.557 14.4223 0.251881 1.576627 -0.025495
2010-12-15 12:16:03 51°31.275 2°52.645 14.4442 0.1978 1.222646 -0.025495
2010-12-15 12:17:03 51°31.379 2°52.738 14.4626 0.223118 1.387382 -0.025495
2010-12-15 12:18:04 51°31.476 2°52.849 14.4566 0.199675 1.235747 -0.095143
2010-12-15 12:19:03 51°31.584 2°52.978 14.4525 0.209573 1.300463 -0.095143
2010-12-15 12:20:03 51°31.701 2°53.124 14.4782 0.211136 1.31087 -0.095143
2010-12-15 12:21:03 51°31.807 2°53.255 14.4666 0.223848 1.394498 -0.095143
2010-12-15 12:22:03 51°31.921 2°53.39 14.4899 0.215824 1.342338 -0.095143
2010-12-15 12:23:03 51°32.029 2°53.535 14.472 0.225828 1.408737 -0.095143
2010-12-15 12:24:03 51°32.13 2°53.683 14.4833 0.228224 1.424454 -0.060319
2010-12-15 12:25:03 51°32.233 2°53.837 14.5007 0.227495 1.419628 -0.095143
2010-12-15 12:26:03 51°32.328 2°53.998 14.4906 0.210615 1.309301 -0.060319
2010-12-15 12:27:03 51°32.421 2°54.165 14.5061 0.231663 1.447706 -0.060319
2010-12-15 12:28:03 51°32.513 2°54.332 14.4946 0.14208 0.865796 -0.060319
2010-12-15 12:29:03 51°32.603 2°54.496 14.5351 0.130627 0.792587 -0.060319
2010-12-15 12:30:03 51°32.696 2°54.659 14.5378 0.141455 0.861981 -0.095143
2010-12-15 12:31:03 51°32.801 2°54.753 14.5656 0.156137 0.955658 -0.060319
2010-12-15 12:32:03 51°32.884 2°54.87 14.5731 0.185196 1.143698 -0.095143
2010-12-15 12:33:03 51°32.975 2°54.967 14.5674 0.123652 0.748855 -0.095143
2010-12-15 12:34:03 51°33.072 2°55.057 14.5684 0.165302 1.015082 -0.060319
2010-12-15 12:35:03 51°33.12 2°55.119 14.5923 0.121153 0.733339 -0.095143
2010-12-15 12:36:03 51°33.164 2°55.186 14.5909 0.121153 0.733126 -0.060319
2010-12-15 12:37:03 51°33.207 2°55.25 14.6117 0.123548 0.748562 -0.060319
2010-12-15 12:38:03 51°33.243 2°55.312 14.6117 0.122819 0.743772 -0.060319
2010-12-15 12:39:03 51°33.272 2°55.379 14.6107 0.133646 0.812844 -0.060319
2010-12-15 12:40:03 51°33.311 2°55.388 14.6198 0.123548 0.748671 -0.095143
2010-12-15 12:41:03 51°33.308 2°55.291 14.6276 0.150514 0.92082 -0.060319
2010-12-15 12:42:03 51°33.209 2°55.126 14.6477 0.119488 0.722819 -0.095143
2010-12-15 12:43:03 51°33.029 2°54.992 14.6617 0.118447 0.715826 -0.025495
2010-12-15 12:44:03 51°32.813 2°54.993 14.6723 0.118655 0.717036 -0.095143
2010-12-15 12:45:03 51°32.594 2°54.973 14.6857 0.118447 0.715683 -0.060319
2010-12-15 12:46:03 51°32.382 2°54.879 14.6979 0.125213 0.759282 -0.060319
2010-12-15 12:47:03 51°32.168 2°54.776 14.7054 0.120112 0.727045 -0.095143
2010-12-15 12:48:03 51°31.954 2°54.675 14.71 0.119384 0.722397 -0.060319
2010-12-15 12:49:03 51°31.748 2°54.544 14.7271 0.121674 0.736819 -0.095143
2010-12-15 12:50:03 51°31.54 2°54.423 14.7031 0.120112 0.727177 -0.060319
2010-12-15 12:51:03 51°31.338 2°54.303 14.7386 0.119696 0.724451 -0.060319
2010-12-15 12:52:03 51°31.13 2°54.2 14.7562 0.121257 0.73433 -0.060319
2010-12-15 12:53:03 51°30.918 2°54.104 14.7814 0.119592 0.723806 -0.060319
2010-12-15 12:54:03 51°30.7 2°54.039 14.7996 0.11928 0.721739 -0.060319
2010-12-15 12:55:03 51°30.491 2°53.979 14.8377 0.119592 0.723569 -0.095143
2010-12-15 12:56:03 51°30.284 2°53.938 14.7755 0.119071 0.720266 -0.095143
2010-12-15 12:57:03 51°30.078 2°53.896 14.822 0.120737 0.731076 -0.060319
2010-12-15 12:58:03 51°29.873 2°53.84 14.8639 0.120112 0.726966 -0.095143
2010-12-15 12:59:03 51°29.671 2°53.763 14.8877 0.120425 0.728875 -0.060319
2010-12-15 13:00:03 51°29.464 2°53.714 14.8894 0.119904 0.725662 -0.095143
2010-12-15 13:01:03 51°29.257 2°53.662 14.8459 0.120737 0.730904 -0.095143
2010-12-15 13:02:03 51°29.051 2°53.617 14.8419 0.120841 0.731376 -0.095143
2010-12-15 13:03:03 51°28.848 2°53.582 14.8978 0.120216 0.727374 -0.060319
2010-12-15 13:04:03 51°28.641 2°53.535 14.9084 0.120008 0.726215 -0.060319
2010-12-15 13:05:03 51°28.437 2°53.483 14.8937 0.121153 0.733525 -0.095143
2010-12-15 13:06:03 51°28.233 2°53.405 14.9256 0.120529 0.729348 -0.129967
2010-12-15 13:07:03 51°28.027 2°53.37 14.8693 0.119071 0.719887 -0.095143
2010-12-15 13:08:03 51°27.823 2°53.32 14.9304 0.120529 0.729507 -0.095143
2010-12-15 13:09:03 51°27.621 2°53.269 14.9024 0.120425 0.728558 -0.025495
2010-12-15 13:10:03 51°27.418 2°53.204 14.9367 0.120112 0.726834 -0.060319
2010-12-15 13:11:03 51°27.21 2°53.143 14.8546 0.121049 0.732481 -0.025495
2010-12-15 13:12:03 51°27.001 2°53.089 14.8633 0.120008 0.725991 -0.060319
2010-12-15 13:13:03 51°26.794 2°53.041 14.9305 0.120112 0.726636 -0.060319
2010-12-15 13:14:03 51°26.589 2°52.982 14.971 0.122194 0.740168 -0.060319
2010-12-15 13:15:03 51°26.384 2°52.896 14.884 0.120945 0.731809 -0.060319
2010-12-15 13:16:03 51°26.177 2°52.811 14.9546 0.119384 0.721782 -0.060319
2010-12-15 13:17:03 51°25.971 2°52.731 14.9907 0.1198 0.724623 -0.060319
2010-12-15 13:18:03 51°25.762 2°52.659 14.9544 0.120112 0.726412 -0.060319
2010-12-15 13:19:03 51°25.556 2°52.627 14.9749 0.120425 0.728492 -0.095143
2010-12-15 13:20:03 51°25.351 2°52.603 14.9433 0.121049 0.732481 -0.025495
2010-12-15 13:21:03 51°25.143 2°52.554 14.9468 0.1198 0.724544 -0.060319
2010-12-15 13:22:03 51°24.938 2°52.517 14.9478 0.119592 0.723019 -0.060319
2010-12-15 13:23:03 51°24.738 2°52.483 14.9729 0.120945 0.731796 -0.095143
2010-12-15 13:24:03 51°24.541 2°52.452 14.9725 0.120008 0.725755 -0.060319
2010-12-15 13:25:03 51°24.345 2°52.444 14.9453 0.120112 0.726663 -0.060319
2010-12-15 13:26:03 51°24.148 2°52.419 14.9638 0.120529 0.728806 -0.060319
2010-12-15 13:27:03 51°23.951 2°52.373 14.9898 0.124901 0.756959 -0.095143
2010-12-15 13:28:03 51°23.754 2°52.342 14.9983 0.122507 0.74158 -0.060319
2010-12-15 13:29:03 51°23.554 2°52.319 14.9948 0.122403 0.741244 -0.060319
2010-12-15 13:30:03 51°23.354 2°52.279 14.9962 0.121362 0.73423 -0.095143
2010-12-15 13:31:03 51°23.154 2°52.242 15.0287 0.12386 0.750146 -0.060319
2010-12-15 13:32:03 51°22.953 2°52.207 15.0115 0.121778 0.736916 -0.060319
2010-12-15 13:33:03 51°22.752 2°52.18 15.0056 0.12209 0.738945 -0.060319
2010-12-15 13:34:03 51°22.554 2°52.153 15.0209 0.12157 0.73568 -0.060319
2010-12-15 13:35:03 51°22.357 2°52.135 15.0535 0.122715 0.742843 -0.060319
2010-12-15 13:36:04 51°22.157 2°52.126 15.0225 0.12386 0.749874 -0.095143
2010-12-15 13:37:03 51°21.962 2°52.115 15.0279 0.126983 0.769796 -0.060319
2010-12-15 13:38:03 51°21.763 2°52.103 15.02 0.122194 0.73943 -0.060319
2010-12-15 13:39:03 51°21.563 2°52.073 15.0166 0.122715 0.742938 -0.025495
2010-12-15 13:40:03 51°21.364 2°52.042 15.0566 0.123652 0.748678 -0.060319
2010-12-15 13:41:03 51°21.167 2°52.024 15.0659 0.123652 0.748678 -0.060319
2010-12-15 13:42:03 51°20.971 2°52.023 15.0454 0.121674 0.736044 -0.060319
2010-12-15 13:43:03 51°20.773 2°52.002 15.0817 0.122611 0.741795 -0.060319
2010-12-15 13:44:03 51°20.576 2°51.995 15.0226 0.124901 0.756835 -0.060319
2010-12-15 13:45:03 51°20.382 2°52.016 15.0545 0.12209 0.738276 -0.060319
2010-12-15 13:46:03 51°20.187 2°51.99 15.0387 0.121049 0.732016 -0.095143
2010-12-15 13:47:03 51°19.988 2°51.963 15.0209 0.121049 0.731937 -0.060319
2010-12-15 13:48:03 51°19.788 2°51.956 15.0623 0.123027 0.744415 -0.060319
2010-12-15 13:49:03 51°19.59 2°51.965 15.0427 0.122611 0.741647 -0.060319
2010-12-15 13:50:03 51°19.394 2°51.995 15.0466 0.12563 0.760901 -0.025495
2010-12-15 13:51:03 51°19.203 2°52.044 15.0562 0.123027 0.744051 -0.060319
2010-12-15 13:52:03 51°19.006 2°52.034 15.0768 0.121257 0.732974 -0.060319
2010-12-15 13:53:03 51°18.808 2°52.025 15.0303 0.122194 0.73872 -0.060319
2010-12-15 13:54:03 51°18.608 2°52.024 15.0754 0.123027 0.744078 -0.060319
2010-12-15 13:55:03 51°18.408 2°52.015 15.0888 0.121986 0.737431 -0.060319
2010-12-15 13:56:03 51°18.207 2°52.021 15.0939 0.122507 0.74064 -0.060319
2010-12-15 13:57:03 51°18.006 2°52.023 15.0669 0.122611 0.741016 -0.060319
2010-12-15 13:58:03 51°17.805 2°52.034 15.0988 0.122194 0.738693 -0.060319
2010-12-15 13:59:03 51°17.606 2°52.038 15.0811 0.123131 0.744911 -0.060319
2010-12-15 14:00:03 51°17.405 2°52.037 15.0836 0.124276 0.752319 -0.025495
2010-12-15 14:01:03 51°17.205 2°52.041 15.1136 0.124276 0.752142 -0.060319
2010-12-15 14:02:03 51°17.01 2°52.09 15.105 0.125005 0.756863 -0.060319
2010-12-15 14:03:03 51°16.828 2°52.203 15.1134 0.122819 0.742721 -0.060319
2010-12-15 14:04:03 51°16.648 2°52.321 15.1011 0.122194 0.738854 -0.060319
2010-12-15 14:05:03 51°16.468 2°52.443 15.1062 0.12334 0.746012 -0.060319
2010-12-15 14:06:03 51°16.302 2°52.598 15.1087 0.12209 0.738062 -0.060319
2010-12-15 14:07:03 51°16.135 2°52.749 15.1305 0.122819 0.742641 -0.060319
2010-12-15 14:08:03 51°15.971 2°52.903 15.1281 0.120945 0.730591 -0.060319
2010-12-15 14:09:03 51°15.812 2°53.065 15.1076 0.124901 0.755451 -0.060319
2010-12-15 14:10:03 51°15.662 2°53.244 15.1326 0.121674 0.735059 -0.060319
2010-12-15 14:11:03 51°15.522 2°53.437 15.096 0.124589 0.753749 -0.060319
2010-12-15 14:12:03 51°15.383 2°53.637 15.1237 0.122819 0.742197 -0.060319
2010-12-15 14:13:03 51°15.264 2°53.858 15.1295 0.304006 1.922098 -0.025495
2010-12-15 14:14:03 51°15.157 2°54.092 15.0754 0.084101 0.524148 -0.060319
2010-12-15 14:15:03 51°15.041 2°54.313 15.0673 0.058505 0.368595 -0.060319
2010-12-15 14:16:03 51°14.903 2°54.516 15.0796 0.0558 0.357015 -0.095143
2010-12-15 14:17:03 51°14.755 2°54.703 15.0872 0.05476 0.354972 -0.060319
2010-12-15 14:18:03 51°14.607 2°54.883 15.0963 0.054552 0.354106 -0.060319
2010-12-15 14:19:03 51°14.464 2°55.067 15.1024 0.054448 0.354425 -0.060319
2010-12-15 14:20:03 51°14.32 2°55.23 15.09 0.055072 0.352022 -0.095143
2010-12-15 14:21:07 51°14.167 2°55.375 15.0965 0.055176 0.354397 -0.060319
2010-12-15 14:22:07 51°14.039 2°55.472 15.1045 0.054136 0.354744 -0.095143
2010-12-15 14:23:07 51°13.92 2°55.559 15.1131 0.0532 0.354668 -0.025495
2010-12-15 14:24:05 51°13.816 2°55.638 15.1115 0.052368 0.354476 -0.060319
2010-12-15 14:25:04 51°13.744 2°55.741 15.1231 0.051744 0.353156 -0.060319
2010-12-15 14:26:03 51°13.696 2°55.843 15.1299 0.05164 0.353297 -0.060319
2010-12-15 14:27:03 51°13.666 2°55.94 15.1357 0.05164 0.35316 -0.095143